Time;durP1;ratioP1;P1;durP2;ratioP2;P2;SDS_P1;SDS_P2;PMS_P1;PMS_P2;Temp;Humidity;BMP_temperature;BMP_pressure;BME280_temperature;BME280_humidity;BME280_pressure;Samples;Min_cycle;Max_cycle;Signal;HPM_P1;HPM_P2
2022/01/22 00:01:54;;;;;;;1.35;0.45;;;;;;;7.86;100.00;101934.25;4995801;28;20062;-53
2022/01/22 00:04:57;;;;;;;0.45;0.28;;;;;;;7.92;100.00;101938.16;4996097;28;20478;-53
2022/01/22 00:08:00;;;;;;;1.05;0.68;;;;;;;7.78;100.00;101935.47;4995897;28;20403;-54
2022/01/22 00:11:04;;;;;;;1.30;0.52;;;;;;;7.74;100.00;101943.03;4995909;28;20049;-53
2022/01/22 00:14:26;;;;;;;0.20;0.10;;;;;;;7.78;100.00;101924.38;4996218;28;20045;-53
2022/01/22 00:17:29;;;;;;;0.75;0.30;;;;;;;7.88;100.00;101931.84;4995691;28;20061;-53
2022/01/22 00:20:32;;;;;;;0.93;0.52;;;;;;;7.85;100.00;101927.13;4995873;28;20065;-53
2022/01/22 00:23:39;;;;;;;1.48;0.50;;;;;;;7.81;100.00;101931.91;4995851;28;20049;-53
2022/01/22 00:26:43;;;;;;;0.85;0.40;;;;;;;7.77;100.00;101931.94;5018882;28;20049;-53
2022/01/22 00:29:47;;;;;;;9.13;0.75;;;;;;;7.75;100.00;101933.53;5015354;28;20049;-53
2022/01/22 00:32:52;;;;;;;0.20;0.20;;;;;;;7.81;100.00;101926.34;5015633;28;20406;-53
2022/01/22 00:35:55;;;;;;;0.40;0.38;;;;;;;7.76;100.00;101912.91;5015214;28;20052;-53
2022/01/22 00:38:59;;;;;;;3.42;0.52;;;;;;;7.80;100.00;101930.31;5015481;28;20737;-53
2022/01/22 00:42:09;;;;;;;2.45;0.40;;;;;;;7.74;100.00;101923.63;5015365;28;20145;-53
2022/01/22 00:45:13;;;;;;;1.23;1.13;;;;;;;7.77;100.00;101920.03;5015121;28;20406;-53
2022/01/22 00:48:17;;;;;;;0.95;0.10;;;;;;;7.71;100.00;101910.59;5015223;28;20088;-53
2022/01/22 00:51:20;;;;;;;0.82;0.50;;;;;;;7.71;100.00;101911.34;5015016;28;20065;-53
2022/01/22 00:54:24;;;;;;;0.82;0.38;;;;;;;7.72;100.00;101909.38;5014702;28;20403;-53
2022/01/22 00:57:27;;;;;;;4.03;0.50;;;;;;;7.73;100.00;101913.72;5015319;28;20061;-53
2022/01/22 01:00:30;;;;;;;0.47;0.30;;;;;;;7.73;100.00;101902.66;5015063;28;20049;-53
2022/01/22 01:03:34;;;;;;;0.55;0.25;;;;;;;7.69;100.00;101902.66;5014906;28;20056;-53
2022/01/22 01:06:39;;;;;;;1.17;0.57;;;;;;;7.69;100.00;101908.19;5014709;28;20053;-54
2022/01/22 01:09:42;;;;;;;3.70;0.50;;;;;;;7.64;100.00;101901.09;5014513;28;20049;-53
2022/01/22 01:12:47;;;;;;;0.45;0.45;;;;;;;7.62;100.00;101905.50;5014756;28;20057;-54
2022/01/22 01:15:59;;;;;;;1.38;0.65;;;;;;;7.55;100.00;101913.84;5023302;28;20052;-53
2022/01/22 01:35:44;;;;;;;0.30;0.30;;;;;;;7.57;100.00;101898.38;5018184;28;20045;-53
2022/01/22 01:38:53;;;;;;;0.60;0.50;;;;;;;7.58;100.00;101897.16;4994526;28;20384;-53
2022/01/22 01:42:03;;;;;;;0.30;0.30;;;;;;;7.58;100.00;101894.41;4994239;28;20053;-53
2022/01/22 01:45:07;;;;;;;0.73;0.30;;;;;;;7.60;100.00;101894.78;4994163;28;20057;-53
2022/01/22 01:48:17;;;;;;;1.45;0.63;;;;;;;7.67;100.00;101898.72;4994163;28;20057;-53
2022/01/22 01:51:23;;;;;;;0.22;0.20;;;;;;;7.68;100.00;101894.75;4994092;28;20057;-53
2022/01/22 01:57:42;;;;;;;0.90;0.52;;;;;;;7.78;100.00;101899.41;4994170;28;20530;-53
2022/01/22 02:00:46;;;;;;;1.10;0.82;;;;;;;7.74;100.00;101899.47;4994303;28;20045;-54
2022/01/22 02:03:50;;;;;;;0.20;0.20;;;;;;;7.74;100.00;101895.88;4993573;28;20054;-53
2022/01/22 02:06:55;;;;;;;0.10;0.10;;;;;;;7.73;100.00;101891.56;5010790;28;20049;-54
2022/01/22 02:09:59;;;;;;;0.25;0.10;;;;;;;7.71;100.00;101893.94;5013387;28;20395;-53
2022/01/22 02:23:34;;;;;;;1.63;1.00;;;;;;;7.76;100.00;101890.72;5012724;28;20057;-53
2022/01/22 02:26:38;;;;;;;2.92;0.60;;;;;;;7.79;100.00;101895.47;5020396;28;20552;-53
2022/01/22 02:29:41;;;;;;;0.75;0.50;;;;;;;7.78;100.00;101888.31;5032094;28;20060;-53
2022/01/22 02:33:37;;;;;;;0.30;0.25;;;;;;;7.78;100.00;101893.88;5032564;28;20052;-53
2022/01/22 02:36:28;;;;;;;1.13;0.22;;;;;;;7.82;100.00;101894.66;5010340;28;20053;-53
2022/01/22 02:39:41;;;;;;;0.73;0.40;;;;;;;7.81;100.00;101893.06;4993475;28;20053;-53
2022/01/22 02:42:44;;;;;;;0.20;0.20;;;;;;;7.77;100.00;101897.84;4993630;28;20057;-53
2022/01/22 02:45:49;;;;;;;2.65;1.30;;;;;;;7.76;100.00;101894.28;4993451;28;20053;-53
2022/01/22 02:48:55;;;;;;;0.70;0.30;;;;;;;7.78;100.00;101894.66;4993084;28;20049;-53
2022/01/22 02:52:07;;;;;;;0.17;0.17;;;;;;;7.82;100.00;101889.88;4993289;28;20403;-53
2022/01/22 02:55:12;;;;;;;0.57;0.50;;;;;;;7.88;100.00;101881.94;4996446;28;20499;-53
2022/01/22 02:58:16;;;;;;;4.85;0.45;;;;;;;7.89;100.00;101883.50;5013042;28;20486;-53
2022/01/22 03:01:21;;;;;;;0.95;0.52;;;;;;;7.89;100.00;101870.41;5011978;28;20389;-53
2022/01/22 03:04:25;;;;;;;2.85;0.50;;;;;;;7.87;100.00;101880.34;5012364;28;20070;-53
2022/01/22 03:07:28;;;;;;;0.40;0.40;;;;;;;7.86;100.00;101879.53;4991964;28;20045;-54
2022/01/22 03:10:32;;;;;;;8.15;0.80;;;;;;;7.93;100.00;101875.94;4992643;28;20057;-53
2022/01/22 03:16:56;;;;;;;0.38;0.35;;;;;;;7.91;100.00;101886.66;5008204;28;20048;-53
2022/01/22 03:29:40;;;;;;;0.47;0.40;;;;;;;7.89;100.00;101870.41;5031799;28;20053;-53
2022/01/22 03:32:48;;;;;;;1.25;0.20;;;;;;;7.86;100.00;101876.00;5031123;28;20052;-53
2022/01/22 03:35:57;;;;;;;2.40;0.85;;;;;;;7.83;100.00;101860.97;5001056;28;20052;-53
2022/01/22 03:39:07;;;;;;;0.20;0.10;;;;;;;7.81;100.00;101870.88;5013853;28;20057;-53
2022/01/22 03:42:10;;;;;;;0.73;0.45;;;;;;;7.81;100.00;101865.34;5015236;28;20044;-53
2022/01/22 03:45:15;;;;;;;0.20;0.20;;;;;;;7.79;100.00;101868.53;4999087;28;20049;-53
2022/01/22 03:48:18;;;;;;;1.75;0.57;;;;;;;7.79;100.00;101851.88;5015172;28;20049;-53
2022/01/22 03:51:21;;;;;;;1.38;0.80;;;;;;;7.82;100.00;101858.59;5015330;28;20061;-53
2022/01/22 03:54:25;;;;;;;1.08;0.60;;;;;;;7.81;100.00;101848.69;5015350;28;20410;-53
2022/01/22 03:57:29;;;;;;;2.28;0.60;;;;;;;7.85;100.00;101847.47;4995228;28;20057;-53
2022/01/22 04:00:32;;;;;;;1.13;0.70;;;;;;;7.81;100.00;101855.03;4955421;28;1183723;-53
2022/01/22 04:03:40;;;;;;;0.40;0.40;;;;;;;7.91;100.00;101848.59;4996397;28;20050;-53
2022/01/22 04:10:08;;;;;;;2.65;1.00;;;;;;;7.87;100.00;101847.84;5016445;28;20237;-53
2022/01/22 04:13:14;;;;;;;1.33;0.43;;;;;;;7.86;100.00;101851.03;5016485;28;20072;-53
2022/01/22 04:16:19;;;;;;;3.35;0.98;;;;;;;7.84;100.00;101853.44;5016172;28;20057;-53
2022/01/22 04:29:25;;;;;;;1.05;0.63;;;;;;;7.82;100.00;101855.84;5036051;28;20535;-53
2022/01/22 04:32:31;;;;;;;0.32;0.32;;;;;;;7.80;100.00;101856.22;5035274;28;20056;-53
2022/01/22 04:35:34;;;;;;;0.60;0.25;;;;;;;7.80;100.00;101864.53;5022559;28;20053;-53
2022/01/22 04:38:38;;;;;;;0.60;0.60;;;;;;;7.86;100.00;101859.38;4995528;28;20053;-53
2022/01/22 04:41:42;;;;;;;0.30;0.15;;;;;;;7.95;100.00;101854.91;4995804;28;20049;-54
2022/01/22 04:44:57;;;;;;;1.33;0.63;;;;;;;7.98;100.00;101856.09;4995497;28;20049;-53
2022/01/22 04:55:01;;;;;;;0.93;0.28;;;;;;;7.89;100.00;101862.09;4995748;28;20053;-53
2022/01/22 04:58:05;;;;;;;0.28;0.25;;;;;;;7.90;100.00;101869.22;4995763;28;20053;-53
2022/01/22 05:01:09;;;;;;;1.00;0.50;;;;;;;7.86;100.00;101862.13;4995392;28;20057;-53
2022/01/22 05:04:12;;;;;;;1.50;0.55;;;;;;;7.82;100.00;101864.91;4994964;28;20057;-53
2022/01/22 05:07:16;;;;;;;0.25;0.20;;;;;;;7.78;100.00;101861.38;4995515;28;20053;-53
2022/01/22 05:10:20;;;;;;;0.50;0.30;;;;;;;7.82;100.00;101850.28;4995287;28;20069;-53
2022/01/22 05:13:23;;;;;;;0.75;0.68;;;;;;;7.84;100.00;101858.97;4995437;28;20061;-53
2022/01/22 05:16:27;;;;;;;0.28;0.28;;;;;;;7.81;100.00;101865.34;5008425;28;20510;-53
2022/01/22 05:25:49;;;;;;;2.85;0.70;;;;;;;7.77;100.00;101854.28;5015029;28;20053;-53
2022/01/22 05:38:44;;;;;;;0.93;0.63;;;;;;;7.80;100.00;101845.13;4994878;28;20057;-53
2022/01/22 05:41:48;;;;;;;4.35;0.73;;;;;;;7.83;100.00;101840.75;4994583;28;20053;-53
2022/01/22 05:44:51;;;;;;;0.55;0.50;;;;;;;7.82;100.00;101844.72;4994856;28;20403;-53
2022/01/22 05:47:54;;;;;;;0.40;0.40;;;;;;;7.80;100.00;101852.66;4995003;28;20061;-53
2022/01/22 05:51:01;;;;;;;1.38;0.50;;;;;;;7.86;100.00;101845.50;4994505;28;20069;-53
2022/01/22 06:00:38;;;;;;;2.80;0.38;;;;;;;7.92;100.00;101841.06;4994491;28;20053;-53
2022/01/22 06:03:42;;;;;;;1.75;0.30;;;;;;;7.95;100.00;101846.59;4994213;28;20069;-53
2022/01/22 06:06:46;;;;;;;0.57;0.57;;;;;;;7.91;100.00;101847.81;5010490;28;20490;-53
2022/01/22 06:10:28;;;;;;;3.60;0.45;;;;;;;7.98;100.00;101844.97;5013888;28;20041;-53
2022/01/22 06:13:21;;;;;;;1.13;0.90;;;;;;;8.09;100.00;101848.47;5013157;28;20053;-53
2022/01/22 06:16:24;;;;;;;6.75;1.60;;;;;;;8.10;100.00;101850.81;5013511;28;20049;-53
2022/01/22 06:19:28;;;;;;;0.35;0.30;;;;;;;8.03;100.00;101855.66;5013593;28;20060;-53
2022/01/22 06:22:31;;;;;;;3.33;0.80;;;;;;;8.03;100.00;101853.66;5013749;28;20045;-53
2022/01/22 06:25:35;;;;;;;1.38;0.82;;;;;;;8.07;100.00;101861.94;5013460;28;20048;-53
2022/01/22 06:28:38;;;;;;;4.70;0.50;;;;;;;8.02;100.00;101867.94;4994220;28;20153;-53
2022/01/22 06:31:42;;;;;;;0.90;0.75;;;;;;;8.03;100.00;101872.31;4993785;28;20053;-50
2022/01/22 06:34:45;;;;;;;0.63;0.45;;;;;;;8.01;100.00;101877.47;4993146;28;20061;-50
2022/01/22 06:37:49;;;;;;;0.52;0.35;;;;;;;8.03;100.00;101877.84;4992992;28;20058;-50
2022/01/22 06:44:17;;;;;;;0.40;0.40;;;;;;;8.05;100.00;101881.00;4993641;28;20056;-50
2022/01/22 06:47:21;;;;;;;0.55;0.40;;;;;;;8.01;100.00;101883.03;4993608;28;20053;-50
2022/01/22 06:50:24;;;;;;;0.70;0.28;;;;;;;8.01;100.00;101881.00;4993351;28;20057;-50
2022/01/22 06:53:28;;;;;;;0.20;0.10;;;;;;;8.01;100.00;101880.25;4993603;28;20049;-50
2022/01/22 06:56:31;;;;;;;1.58;1.08;;;;;;;8.01;100.00;101871.91;5007540;28;20061;-50
2022/01/22 06:59:35;;;;;;;0.43;0.30;;;;;;;8.02;100.00;101879.03;5013080;28;20069;-50
2022/01/22 07:02:38;;;;;;;0.30;0.30;;;;;;;8.01;100.00;101874.69;5012834;28;20048;-50
2022/01/22 07:05:41;;;;;;;3.10;0.47;;;;;;;7.96;100.00;101866.81;5012797;28;20507;-50
2022/01/22 07:08:44;;;;;;;0.85;0.65;;;;;;;7.98;100.00;101873.53;5012212;28;20083;-50
2022/01/22 07:11:48;;;;;;;1.25;0.52;;;;;;;7.98;100.00;101870.75;5013023;28;20057;-50
2022/01/22 07:14:51;;;;;;;0.20;0.20;;;;;;;7.93;100.00;101867.59;5012633;28;20049;-50
2022/01/22 07:17:55;;;;;;;0.63;0.40;;;;;;;7.91;100.00;101881.09;5012843;28;20045;-50
2022/01/22 07:21:08;;;;;;;0.20;0.17;;;;;;;7.91;100.00;101886.66;5012895;28;20525;-50
2022/01/22 07:24:23;;;;;;;0.70;0.70;;;;;;;7.93;100.00;101892.56;5011614;28;20048;-50
2022/01/22 07:27:27;;;;;;;1.35;0.63;;;;;;;7.93;100.00;101895.34;5027236;28;20430;-50
2022/01/22 07:30:30;;;;;;;1.13;0.57;;;;;;;7.88;100.00;101893.81;5032452;28;20052;-50
2022/01/22 07:33:34;;;;;;;1.48;0.22;;;;;;;7.88;100.00;101890.25;5032919;28;20398;-50
2022/01/22 07:36:37;;;;;;;18.30;0.95;;;;;;;7.90;100.00;101893.41;5002677;28;20070;-50
2022/01/22 07:39:41;;;;;;;0.63;0.35;;;;;;;7.81;100.00;101887.53;4993144;28;20054;-50
2022/01/22 07:42:44;;;;;;;0.35;0.20;;;;;;;7.78;100.00;101888.31;4992369;28;20558;-50
2022/01/22 07:45:47;;;;;;;3.30;0.50;;;;;;;7.81;100.00;101893.06;5001052;28;20053;-50
2022/01/22 07:48:51;;;;;;;3.70;0.38;;;;;;;7.80;100.00;101897.81;5012633;28;20486;-50
2022/01/22 07:51:55;;;;;;;4.05;0.30;;;;;;;7.80;100.00;101897.03;5012745;28;20052;-50
2022/01/22 07:54:58;;;;;;;1.63;1.10;;;;;;;7.81;100.00;101902.19;5014137;28;20056;-50
2022/01/22 07:58:01;;;;;;;0.98;0.35;;;;;;;7.77;100.00;101893.09;5032370;28;20052;-50
2022/01/22 08:01:05;;;;;;;0.82;0.47;;;;;;;7.72;100.00;101901.06;5032351;28;20052;-50
2022/01/22 08:04:09;;;;;;;1.35;0.52;;;;;;;7.78;100.00;101899.41;5032173;28;20060;-50
2022/01/22 08:07:12;;;;;;;2.17;0.40;;;;;;;7.81;100.00;101895.84;4992803;28;20399;-50
2022/01/22 08:10:17;;;;;;;1.00;0.38;;;;;;;7.81;100.00;101893.06;4992911;28;20057;-50
2022/01/22 08:13:21;;;;;;;1.17;0.40;;;;;;;7.76;100.00;101896.25;4993174;28;20054;-50
2022/01/22 08:16:25;;;;;;;0.20;0.20;;;;;;;7.79;100.00;101895.47;4992811;28;20068;-50
2022/01/22 08:19:28;;;;;;;4.15;0.60;;;;;;;7.79;100.00;101895.47;4992484;28;20053;-50
2022/01/22 08:22:31;;;;;;;0.45;0.32;;;;;;;7.78;100.00;101888.31;4995518;28;20053;-50
2022/01/22 08:25:35;;;;;;;0.52;0.52;;;;;;;7.79;100.00;101889.91;4996226;28;20050;-50
2022/01/22 08:28:53;;;;;;;8.95;1.80;;;;;;;7.84;100.00;101886.72;4996441;28;20050;-50
2022/01/22 08:38:51;;;;;;;3.05;1.05;;;;;;;7.86;100.00;101889.88;5015224;28;20057;-50
2022/01/22 08:41:55;;;;;;;1.20;0.75;;;;;;;7.88;100.00;101882.72;5015867;28;20056;-50
2022/01/22 08:44:58;;;;;;;0.30;0.30;;;;;;;7.94;100.00;101885.84;5015453;28;20052;-50
2022/01/22 08:48:03;;;;;;;2.47;1.05;;;;;;;7.92;100.00;101885.47;5015565;28;20053;-50
2022/01/22 08:51:09;;;;;;;1.33;0.35;;;;;;;7.90;100.00;101890.63;5015494;28;20048;-50
2022/01/22 08:54:12;;;;;;;1.55;0.80;;;;;;;7.93;100.00;101884.25;5015860;28;20061;-50
2022/01/22 08:57:17;;;;;;;2.30;1.27;;;;;;;7.97;100.00;101876.72;5014861;28;20056;-50
2022/01/22 09:00:22;;;;;;;2.72;0.35;;;;;;;8.01;100.00;101880.25;5015309;28;20053;-50
2022/01/22 09:03:26;;;;;;;0.63;0.63;;;;;;;8.07;100.00;101878.59;5015027;28;20056;-50
2022/01/22 09:06:29;;;;;;;1.40;1.27;;;;;;;8.08;100.00;101891.25;5015266;28;20069;-50
2022/01/22 09:09:35;;;;;;;1.23;0.95;;;;;;;8.19;100.00;101894.75;5014235;28;20053;-50
2022/01/22 09:12:39;;;;;;;3.10;0.90;;;;;;;8.25;100.00;101895.91;5014735;28;20060;-50
2022/01/22 09:15:42;;;;;;;0.63;0.63;;;;;;;8.30;100.00;101892.69;5014807;28;20037;-50
2022/01/22 09:18:46;;;;;;;1.20;0.50;;;;;;;8.41;100.00;101887.84;5014481;28;20403;-50
2022/01/22 09:21:50;;;;;;;2.67;0.80;;;;;;;8.42;100.00;101878.31;5014870;28;20148;-50
2022/01/22 09:24:53;;;;;;;1.55;0.95;;;;;;;8.48;100.00;101887.78;5015283;28;20053;-50
2022/01/22 09:27:57;;;;;;;1.80;0.73;;;;;;;8.48;100.00;101889.75;5015367;28;20061;-50
2022/01/22 09:31:01;;;;;;;1.40;1.20;;;;;;;8.54;100.00;101885.31;5014791;28;20053;-50
2022/01/22 09:34:04;;;;;;;0.75;0.63;;;;;;;8.59;100.00;101899.56;5013655;28;20053;-50
2022/01/22 09:37:08;;;;;;;0.55;0.55;;;;;;;8.58;100.00;101886.88;5014520;28;20068;-50
2022/01/22 09:40:12;;;;;;;1.48;1.17;;;;;;;8.65;100.00;101892.34;5014036;28;20045;-50
2022/01/22 09:43:16;;;;;;;0.32;0.20;;;;;;;8.69;100.00;101881.19;5014439;28;20398;-50
2022/01/22 09:46:21;;;;;;;3.00;0.60;;;;;;;8.76;100.00;101870.81;5014141;28;20068;-50
2022/01/22 09:49:25;;;;;;;0.88;0.55;;;;;;;8.83;100.00;101873.50;5014116;28;20053;-50
2022/01/22 09:52:29;;;;;;;1.85;0.35;;;;;;;9.00;100.00;101874.50;5014034;28;20061;-50
2022/01/22 09:55:32;;;;;;;1.95;0.68;;;;;;;9.09;100.00;101889.47;5013823;28;20065;-50
2022/01/22 09:58:36;;;;;;;3.60;0.63;;;;;;;9.08;100.00;101885.13;5014255;28;20395;-50
2022/01/22 10:01:40;;;;;;;1.75;1.00;;;;;;;9.13;100.00;101887.44;5013609;28;20424;-50
2022/01/22 10:04:48;;;;;;;0.60;0.60;;;;;;;9.12;100.00;101888.63;5014163;28;20049;-50
2022/01/22 10:07:53;;;;;;;2.33;1.65;;;;;;;9.16;100.00;101892.16;5013487;28;20403;-50
2022/01/22 10:10:58;;;;;;;0.52;0.25;;;;;;;9.23;100.00;101904.38;5013589;28;20513;-50
2022/01/22 10:14:02;;;;;;;20.83;1.70;;;;;;;9.26;100.00;101893.22;5013749;28;20068;-50
2022/01/22 10:17:06;;;;;;;1.13;1.02;;;;;;;9.32;100.00;101894.34;5013192;28;20064;-50
2022/01/22 10:20:27;;;;;;;10.43;1.00;;;;;;;9.30;100.00;101887.59;5013504;28;20049;-50
2022/01/22 10:23:37;;;;;;;0.57;0.57;;;;;;;9.28;100.00;101901.16;5013346;28;20517;-50
2022/01/22 10:26:40;;;;;;;2.80;1.10;;;;;;;9.27;100.00;101894.03;5021778;28;20052;-50
2022/01/22 10:30:07;;;;;;;0.52;0.35;;;;;;;9.18;100.00;101900.09;5033435;28;20056;-50
2022/01/22 10:33:27;;;;;;;1.60;0.90;;;;;;;9.23;100.00;101899.59;5033194;28;20060;-50
2022/01/22 10:36:31;;;;;;;0.90;0.52;;;;;;;9.42;100.00;101901.72;5005073;28;20057;-50
2022/01/22 10:39:35;;;;;;;2.22;1.58;;;;;;;9.50;100.00;101913.56;4992981;28;20049;-49
2022/01/22 10:42:38;;;;;;;3.00;1.55;;;;;;;9.45;100.00;101911.25;4993971;28;20057;-50
2022/01/22 10:45:59;;;;;;;3.08;1.67;;;;;;;9.53;100.00;101910.72;5000163;28;20064;-49
2022/01/22 10:49:07;;;;;;;0.55;0.47;;;;;;;9.61;100.00;101908.66;5013033;28;20049;-50
2022/01/22 10:52:11;;;;;;;1.33;1.05;;;;;;;9.82;100.00;101908.31;5012637;28;20505;-50
2022/01/22 10:55:14;;;;;;;4.18;0.85;;;;;;;9.82;100.00;101908.31;5011812;28;20049;-49
2022/01/22 10:58:18;;;;;;;4.95;0.90;;;;;;;9.75;100.00;101914.78;5012935;28;20505;-49
2022/01/22 11:01:24;;;;;;;1.33;0.22;;;;;;;9.84;100.00;101911.47;5012779;28;20052;-49
2022/01/22 11:04:37;;;;;;;4.50;1.13;;;;;;;9.91;100.00;101912.16;4993385;28;20053;-49
2022/01/22 11:07:40;;;;;;;0.52;0.52;;;;;;;9.96;100.00;101916.47;4993371;28;20065;-49
2022/01/22 11:10:45;;;;;;;7.50;2.47;;;;;;;10.00;100.00;101914.41;4993760;28;20049;-49
2022/01/22 11:13:48;;;;;;;1.40;1.10;;;;;;;10.06;100.00;101918.28;4993178;28;20053;-49
2022/01/22 11:16:53;;;;;;;0.50;0.50;;;;;;;10.17;100.00;101912.59;5010344;28;20053;-49
2022/01/22 11:19:58;;;;;;;3.92;0.73;;;;;;;10.14;100.00;101907.84;5012579;28;20061;-49
2022/01/22 11:23:01;;;;;;;2.40;0.98;;;;;;;10.16;100.00;101914.56;5013243;28;20049;-49
2022/01/22 11:26:06;;;;;;;4.03;1.08;;;;;;;10.23;100.00;101910.88;5019733;28;20052;-49
2022/01/22 11:29:11;;;;;;;11.55;1.52;;;;;;;10.24;100.00;101909.69;5011924;28;20487;-49
2022/01/22 11:32:17;;;;;;;1.00;0.85;;;;;;;10.26;100.00;101908.06;5012361;28;20046;-49
2022/01/22 11:35:27;;;;;;;0.98;0.17;;;;;;;10.26;100.00;101912.84;5012662;28;20502;-49
2022/01/22 11:38:37;;;;;;;4.65;1.13;;;;;;;10.33;100.00;101909.94;5005504;28;20053;-49
2022/01/22 11:41:51;;;;;;;0.90;0.70;;;;;;;10.32;100.00;101909.16;4993240;28;20049;-49
2022/01/22 11:45:02;;;;;;;4.57;0.73;;;;;;;10.27;100.00;101903.25;4994271;28;20053;-49
2022/01/22 11:48:16;;;;;;;11.55;1.35;;;;;;;10.19;100.00;101894.25;5012735;28;20057;-49
2022/01/22 11:51:24;;;;;;;1.08;0.98;;;;;;;10.21;100.00;101897.41;5012446;28;20049;-49
2022/01/22 11:54:51;;;;;;;1.15;0.80;;;;;;;10.25;100.00;101903.69;5012632;28;20402;-49
2022/01/22 11:58:05;;;;;;;2.33;0.68;;;;;;;10.30;100.00;101897.66;4996362;28;20053;-49
2022/01/22 12:01:09;;;;;;;5.20;0.98;;;;;;;10.38;100.00;101898.28;4996734;28;20058;-49
2022/01/22 12:04:16;;;;;;;0.68;0.40;;;;;;;10.47;100.00;101901.31;4996622;28;20479;-49
2022/01/22 12:07:22;;;;;;;1.65;0.80;;;;;;;10.43;100.00;101893.03;4996388;28;20383;-49
2022/01/22 12:10:42;;;;;;;1.13;0.43;;;;;;;10.33;100.00;101887.66;4996187;28;20045;-49
2022/01/22 12:17:17;;;;;;;0.55;0.43;;;;;;;10.39;100.00;101905.44;5015501;28;20053;-49
2022/01/22 12:21:30;;;;;;;4.60;1.10;;;;;;;10.45;100.00;101901.75;5015681;28;20057;-49
2022/01/22 12:23:57;;;;;;;0.20;0.20;;;;;;;10.56;100.00;101901.56;5015347;28;20050;-49
2022/01/22 12:27:04;;;;;;;7.05;0.80;;;;;;;10.55;100.00;101889.63;5022594;28;21013;-49
2022/01/22 12:30:08;;;;;;;1.17;0.65;;;;;;;10.62;100.00;101891.50;5015598;28;20049;-49
2022/01/22 12:33:15;;;;;;;0.77;0.55;;;;;;;10.59;100.00;101889.53;5015513;28;20053;-49
2022/01/22 12:36:36;;;;;;;1.50;0.50;;;;;;;10.65;100.00;101882.28;5015599;28;20489;-49
2022/01/22 12:39:43;;;;;;;2.67;0.50;;;;;;;10.70;100.00;101889.38;5015047;28;20052;-49
2022/01/22 12:42:55;;;;;;;0.75;0.73;;;;;;;10.55;100.00;101895.19;5015581;28;20057;-49
2022/01/22 12:46:01;;;;;;;0.55;0.55;;;;;;;10.56;100.00;101884.84;5015337;28;20056;-49
2022/01/22 12:49:07;;;;;;;0.35;0.35;;;;;;;10.52;100.00;101884.13;5015588;28;20498;-49
2022/01/22 12:52:13;;;;;;;0.82;0.20;;;;;;;10.47;100.00;101876.25;5015826;28;20129;-48
2022/01/22 12:55:26;;;;;;;2.00;0.82;;;;;;;10.38;100.00;101879.59;5015087;28;20053;-49
2022/01/22 12:58:32;;;;;;;0.60;0.60;;;;;;;10.40;100.00;101870.81;5015217;28;20057;-49
2022/01/22 13:01:43;;;;;;;1.85;0.63;;;;;;;10.38;100.00;101873.22;5015015;28;20053;-49
2022/01/22 13:04:58;;;;;;;0.80;0.50;;;;;;;10.35;100.00;101880.44;5015042;28;20049;-49
2022/01/22 13:08:06;;;;;;;1.42;0.63;;;;;;;10.47;100.00;101874.25;5014669;28;20494;-49
2022/01/22 13:11:11;;;;;;;0.70;0.60;;;;;;;10.52;100.00;101876.56;5015176;28;20419;-49
2022/01/22 13:14:18;;;;;;;1.23;0.70;;;;;;;10.52;100.00;101873.78;5014583;28;20052;-49
2022/01/22 13:17:29;;;;;;;0.45;0.45;;;;;;;10.47;100.00;101879.84;5014949;28;20073;-50
2022/01/22 13:20:34;;;;;;;0.97;0.40;;;;;;;10.47;100.00;101865.09;5014500;28;20044;-49
2022/01/22 13:23:37;;;;;;;2.15;0.60;;;;;;;10.48;100.00;101867.47;5010484;28;20061;-48
2022/01/22 13:27:32;;;;;;;0.43;0.35;;;;;;;10.26;100.00;101860.72;5018335;28;20064;-48
2022/01/22 13:30:15;;;;;;;0.50;0.35;;;;;;;10.22;100.00;101865.53;5034555;28;20056;-49
2022/01/22 13:33:42;;;;;;;0.85;0.75;;;;;;;10.12;100.00;101869.31;5033953;28;20052;-48
2022/01/22 13:37:14;;;;;;;0.73;0.73;;;;;;;10.15;100.00;101882.38;5002032;28;20495;-48
2022/01/22 13:50:35;;;;;;;0.88;0.77;;;;;;;10.32;100.00;101870.16;4994817;28;20049;-49
2022/01/22 13:53:39;;;;;;;0.60;0.60;;;;;;;10.28;100.00;101875.00;4994650;28;20053;-49
2022/01/22 13:56:52;;;;;;;0.57;0.57;;;;;;;10.25;100.00;101870.28;5009654;28;20067;-49
2022/01/22 13:59:57;;;;;;;1.85;0.57;;;;;;;10.20;100.00;101858.84;5013719;28;20061;-49
2022/01/22 14:06:11;;;;;;;1.08;0.82;;;;;;;10.16;100.00;101860.88;5014661;28;20398;-49
2022/01/22 14:09:19;;;;;;;0.65;0.38;;;;;;;10.14;100.00;101864.09;5017931;28;20129;-53
2022/01/22 14:12:41;;;;;;;0.55;0.50;;;;;;;10.10;100.00;101857.78;5033467;28;20402;-52
2022/01/22 14:15:45;;;;;;;1.00;0.68;;;;;;;10.09;100.00;101866.56;5018081;28;20045;-52
2022/01/22 14:18:49;;;;;;;2.53;0.70;;;;;;;10.04;100.00;101872.59;4993094;28;20097;-52
2022/01/22 14:21:56;;;;;;;1.00;0.43;;;;;;;10.10;100.00;101868.91;4993916;28;20053;-52
2022/01/22 14:25:18;;;;;;;0.77;0.30;;;;;;;10.01;100.00;101874.22;4993659;28;20057;-52
2022/01/22 14:28:25;;;;;;;2.17;1.05;;;;;;;10.05;100.00;101866.59;4993999;28;20069;-52
2022/01/22 14:31:44;;;;;;;6.60;0.95;;;;;;;10.15;100.00;101870.47;4993609;28;20042;-52
2022/01/22 14:34:47;;;;;;;2.38;0.85;;;;;;;10.16;100.00;101861.66;4993951;28;20408;-52
2022/01/22 14:37:54;;;;;;;2.35;0.63;;;;;;;10.20;100.00;101867.97;4994006;28;20065;-52
2022/01/22 14:44:32;;;;;;;1.15;0.77;;;;;;;10.20;100.00;101862.41;4993129;28;20463;-52
2022/01/22 14:47:36;;;;;;;0.20;0.10;;;;;;;10.23;100.00;101872.69;4993768;28;20058;-52
2022/01/22 14:50:40;;;;;;;0.28;0.10;;;;;;;10.22;100.00;101871.09;4993267;28;20049;-52
2022/01/22 14:53:43;;;;;;;16.88;1.20;;;;;;;10.27;100.00;101873.41;4993494;28;20412;-52
2022/01/22 14:56:46;;;;;;;2.17;1.98;;;;;;;10.25;100.00;101861.13;5008492;28;20042;-52
2022/01/22 14:59:51;;;;;;;1.67;0.80;;;;;;;10.25;100.00;101861.91;5012177;28;20077;-52
2022/01/22 15:02:54;;;;;;;0.55;0.52;;;;;;;10.19;100.00;101862.81;5012554;28;20053;-52
2022/01/22 15:05:57;;;;;;;0.32;0.32;;;;;;;10.21;100.00;101858.41;5012280;28;20065;-52
2022/01/22 15:09:01;;;;;;;1.27;0.80;;;;;;;10.19;100.00;101860.84;5012371;28;21831;-52
2022/01/22 15:12:07;;;;;;;4.47;0.60;;;;;;;10.15;100.00;101859.31;5012939;28;20065;-52
2022/01/22 15:15:12;;;;;;;1.77;0.45;;;;;;;10.14;100.00;101847.41;5012281;28;20049;-52
2022/01/22 15:18:39;;;;;;;2.50;0.93;;;;;;;10.14;100.00;101847.41;5012701;28;20502;-52
2022/01/22 15:21:40;;;;;;;2.30;0.88;;;;;;;10.08;100.00;101843.50;5013234;28;20049;-52
2022/01/22 15:24:47;;;;;;;2.22;1.23;;;;;;;10.01;100.00;101853.94;5011633;28;20061;-52
2022/01/22 15:27:50;;;;;;;1.63;0.57;;;;;;;10.01;100.00;101860.31;5030372;28;20044;-52
2022/01/22 15:30:54;;;;;;;4.95;1.63;;;;;;;9.95;100.00;101856.44;5034520;28;20070;-52
2022/01/22 15:34:14;;;;;;;3.20;0.77;;;;;;;9.96;100.00;101854.44;5035973;28;20052;-52
2022/01/22 15:37:21;;;;;;;1.38;0.68;;;;;;;10.01;100.00;101870.66;4997029;28;20065;-52
2022/01/22 15:40:31;;;;;;;5.68;1.38;;;;;;;9.94;100.00;101860.41;4997181;28;20061;-52
2022/01/22 15:43:35;;;;;;;1.83;1.02;;;;;;;9.95;100.00;101856.44;4996743;28;20049;-52
2022/01/22 15:46:44;;;;;;;6.20;2.10;;;;;;;9.89;100.00;101858.94;5011770;28;20121;-52
2022/01/22 15:49:54;;;;;;;3.20;1.20;;;;;;;9.88;100.00;101851.78;5016369;28;20072;-53
2022/01/22 15:52:57;;;;;;;7.45;1.23;;;;;;;9.87;100.00;101852.22;5016286;28;20052;-53
2022/01/22 15:56:01;;;;;;;3.47;1.67;;;;;;;9.81;100.00;101846.31;5015715;28;20056;-52
2022/01/22 15:59:05;;;;;;;4.20;1.75;;;;;;;9.79;100.00;101837.59;5016243;28;20060;-52
2022/01/22 16:02:09;;;;;;;3.85;1.42;;;;;;;9.78;100.00;101835.25;5016269;28;20053;-52
2022/01/22 16:05:13;;;;;;;4.03;1.20;;;;;;;9.75;100.00;101825.75;5015679;28;20510;-52
2022/01/22 16:08:17;;;;;;;8.00;2.75;;;;;;;9.74;100.00;101828.97;5016170;28;20056;-52
2022/01/22 16:11:20;;;;;;;3.03;1.33;;;;;;;9.67;100.00;101834.63;5016144;28;20065;-52
2022/01/22 16:14:24;;;;;;;6.20;2.20;;;;;;;9.66;100.00;101839.41;5015962;28;20485;-52
2022/01/22 16:17:30;;;;;;;4.95;2.42;;;;;;;9.68;100.00;101841.78;5016025;28;20506;-52
2022/01/22 16:20:33;;;;;;;4.68;2.53;;;;;;;9.64;100.00;101846.59;5015965;28;20053;-53